Angatuba, Brazil
Current Conditions -  °F | °C
As of 8:00 PM on Sunday 25 Jan 2015 (Local Time) from SBKP Reporting Station
Few Clouds Few Clouds  
Wind Chill: 84°   Ceiling: Unl
Heat Index: 85°   Visibility: 6mi
Dew Point: 63°   Wind: 5mph
Humidity: 48%   Direction: 280°W
Pressure: 29.94"   Gusts: NA
Location:  23.49°S, 48.42°W
Report Text: SBKP 252200Z 28004KT 9999 FEW050TCU 29/17 Q1014
Loading
Personal Weather Stations






























Interactive Weather Map New forecast layout! Learn more

10-Day Weather Forecast

Advertisements
Track Severe Weather on mobile